Startpagina
METAR-TAF:

METAR-TAF

Vliegvelden :

Santa Ana del Yacuma, Bolivia

breedte: 13-46S, lengte: 065-26W, hoogte: 144 m

Actueel weer

Dit bericht is 1 uur en het 11 minuten geleden gemaakt, om 19:00 UTC
Wind 8 kt uit het noordnoordwesten
Temperatuur 32°C
Vochtigheid 63%
Druk 1005 hPa
Zicht: 8000 m
Verspreide wolken op 1700 ft
Weinig wolken op 2300 ft, Cumulonimbus.
buien in de omgeving

METAR: SLSA 121900Z 33008KT 8000 VCSH SCT017 FEW023CB 32/24 Q1005

Tijdstip: 16:11 (20:11 UTC)


TAF: ontbreekt

Waarnemingen en weersverwachtingen van meer dan 4000 vliegvelden (METAR en TAF).

De beschikbare stations zijn de gele en rode punten op de kaart.

Ga met uw muis naar het station om de naam te zien.

Klik dan om waarnemingen en weersverwachtingen te zien.

kaart wijzigen: klik op de groene knoppen met een zwart kruis om in te zoomen, op de groene knop met een streepje om uit te zoomen of op de groene pijlen voor aangrenzende kaarten.


METAR-TAF: